• Join FlightAware (Why Join?)
  • Login
  • US Flag 
12:12AM EST


 

Airport Tracker/Info


-or-


 

Live Flight TrackerFlight Track Log ✈ AAY843 ✈ 09-Jan-2014 ✈ KSYR - KPIE

Flight Track Log - Related Links

Times and Time Zones

All times are in EST time to prevent confusion due to time zone crossing. See the AAY843 flight status page for this flight to view local times or setup timezone preferences in your user account.

Time Position Orientation Groundspeed Altitude Reporting Facility
EST Latitude Longitude Course Direction KTS MPH feet Rate Location/Type
12:16PM 43.0850 -76.1903 208° Southwest 208 239 2,900  Level Boston Center
12:16PM 43.0656 -76.2047 208° Southwest 240 276 3,700 3,420 Climbing Boston Center
12:17PM 43.0069 -76.2589 214° Southwest 270 311 7,400 3,000 Climbing Boston Center
12:18PM 42.9650 -76.2983 215° Southwest 266 306 9,400 1,320 Climbing Boston Center
12:19PM 42.8906 -76.3603 211° Southwest 321 369 10,000 1,140 Climbing Boston Center
12:20PM 42.7878 -76.4464 212° Southwest 366 421 11,800 2,100 Climbing Boston Center
12:21PM 42.7003 -76.5214 212° Southwest 372 428 14,400 2,400 Climbing Boston Center
12:22PM 42.6061 -76.5994 211° Southwest 391 450 16,800 1,260 Climbing Boston Center
12:23PM 42.5119 -76.6792 212° Southwest 399 459 17,000 660 Climbing Boston Center
12:24PM 42.4178 -76.7592 212° Southwest 400 460 18,200 1,500 Climbing Boston Center
12:25PM 42.3217 -76.8389 212° Southwest 403 464 20,200 1,800 Climbing Boston Center
12:26PM 42.2225 -76.9208 211° Southwest 410 472 22,000 1,380 Climbing Boston Center
12:27PM 42.1231 -77.0022 211° Southwest 415 478 23,100 1,560 Climbing Boston Center
12:28PM 42.0000 -76.9936 177° South 464 534 25,200 1,800 Climbing Boston Center
12:29PM 41.8767 -76.9508 166° South 458 527 26,900 1,620 Climbing Boston Center
12:30PM 41.7292 -76.9033 166° South 453 521 28,600 1,380 Climbing Boston Center
12:31PM 41.6239 -76.8678 166° South 450 518 29,800 600 Climbing Boston Center
12:32PM 41.4428 -76.8125 167° South 454 522 30,000 60 Climbing New York Center
12:33PM 41.3150 -76.7844 171° South 465 535 30,000  Level New York Center
12:34PM 41.1967 -76.8153 191° South 444 511 30,000  Level New York Center
12:35PM 41.0886 -76.8497 194° South 444 511 30,000  Level New York Center
12:36PM 40.9703 -76.8831 192° South 444 511 30,000  Level New York Center
12:37PM 40.8539 -76.9167 192° South 444 511 30,000  Level New York Center
12:38PM 40.7375 -76.9500 192° South 438 504 30,000  Level New York Center
12:39PM 40.6250 -76.9919 196° South 432 497 30,000  Level New York Center
12:40PM 40.5158 -77.0447 200° South 427 491 30,000  Level New York Center
12:41PM 40.4050 -77.0919 198° South 427 491 30,000  Level New York Center
12:43PM 40.2283 -77.1756 200° South 421 484 30,000  Level Washington Center
12:44PM 40.1297 -77.2194 199° South 421 484 30,000  Level Washington Center
12:45PM 40.0208 -77.2656 198° South 421 484 30,000  Level Washington Center
12:46PM 39.9117 -77.3144 199° South 421 484 30,000  Level Washington Center
12:47PM 39.8047 -77.3661 200° South 421 484 30,000  Level Washington Center
12:48PM 39.6958 -77.4119 198° South 416 479 30,000 240 Level Washington Center
12:49PM 39.5886 -77.4631 200° South 416 479 30,500 900 Climbing Washington Center
12:50PM 39.4692 -77.5136 198° South 410 472 31,800 720 Climbing Washington Center
12:51PM 39.3789 -77.5569 200° South 401 461 32,000 60 Climbing Washington Center
12:52PM 39.2675 -77.6075 199° South 391 450 32,000  Level Washington Center
12:53PM 39.1647 -77.6528 199° South 391 450 32,000  Level Washington Center
12:54PM 39.0597 -77.6981 199° South 391 450 32,000  Level Washington Center
12:55PM 38.9567 -77.7431 199° South 396 456 32,000  Level Washington Center
12:56PM 38.8642 -77.7831 199° South 396 456 32,000  Level Washington Center
12:57PM 38.7550 -77.8331 200° South 403 464 32,000  Level Washington Center
12:58PM 38.6539 -77.8781 199° South 403 464 32,000  Level Washington Center
12:59PM 38.5489 -77.9225 198° South 403 464 32,000  Level Washington Center
01:00PM 38.4439 -77.9669 198° South 403 464 32,000  Level Washington Center
01:01PM 38.3386 -78.0111 198° South 403 464 32,000  Level Washington Center
01:02PM 38.2356 -78.0581 200° South 403 464 32,000  Level Washington Center
01:03PM 38.1281 -78.1047 199° South 403 464 32,000  Level Washington Center
01:04PM 38.0272 -78.1489 199° South 403 464 32,000  Level Washington Center
01:05PM 37.9203 -78.1767 192° South 403 464 32,000  Level Washington Center
01:06PM 37.8047 -78.2147 195° South 398 458 32,000  Level Washington Center
01:07PM 37.6953 -78.2506 195° South 398 458 32,000  Level Washington Center
01:08PM 37.5864 -78.2806 192° South 398 458 32,000  Level Washington Center
01:09PM 37.4792 -78.3136 194° South 398 458 32,000  Level Washington Center
01:10PM 37.3700 -78.3436 192° South 398 458 32,000  Level Washington Center
01:11PM 37.2692 -78.3739 193° South 398 458 32,000  Level Washington Center
01:12PM 37.1600 -78.4064 193° South 398 458 32,000  Level Washington Center
01:13PM 37.0528 -78.4389 194° South 398 458 32,000  Level Washington Center
01:14PM 36.9414 -78.4711 193° South 398 458 32,000  Level Washington Center
01:15PM 36.8236 -78.5058 193° South 398 458 32,000  Level Washington Center
01:16PM 36.7167 -78.5381 194° South 398 458 32,000  Level Washington Center
01:17PM 36.6178 -78.5678 194° South 398 458 32,000  Level Washington Center
01:18PM 36.5164 -78.6158 201° Southwest 398 458 32,000  Level Washington Center
01:19PM 36.4211 -78.6661 203° Southwest 393 452 32,000  Level Washington Center
01:20PM 36.3239 -78.7192 204° Southwest 388 447 32,000  Level Washington Center
01:21PM 36.2244 -78.7719 203° Southwest 388 447 32,000  Level Washington Center
01:22PM 36.1250 -78.8219 202° Southwest 383 441 32,000  Level Washington Center
01:23PM 36.0275 -78.8744 204° Southwest 383 441 32,000  Level Washington Center
01:24PM 35.9281 -78.9242 202° Southwest 383 441 32,000  Level Washington Center
01:25PM 35.8286 -78.9736 202° Southwest 383 441 32,000  Level Washington Center
01:26PM 35.7311 -79.0258 204° Southwest 383 441 32,000  Level Washington Center
01:27PM 35.6339 -79.0778 203° Southwest 383 441 32,000  Level Washington Center
01:28PM 35.5236 -79.1317 202° Southwest 383 441 32,000  Level Washington Center
01:29PM 35.4283 -79.1836 204° Southwest 383 441 32,000  Level Washington Center
01:30PM 35.3286 -79.2325 202° Southwest 383 441 32,000  Level Washington Center
01:31PM 35.2311 -79.2817 202° Southwest 383 441 32,000  Level Washington Center
01:32PM 35.1336 -79.3331 203° Southwest 383 441 32,000  Level Washington Center
01:33PM 35.0339 -79.3817 202° Southwest 383 441 32,000  Level Washington Center
01:37PM 34.6750 -79.5628 203° Southwest 392 451 32,000  Level Jacksonville Center
01:38PM 34.5761 -79.6119 202° Southwest 392 451 32,000  Level Jacksonville Center
01:39PM 34.4794 -79.6611 203° Southwest 387 445 32,000  Level Jacksonville Center
01:40PM 34.3783 -79.7100 202° Southwest 392 451 32,000  Level Jacksonville Center
01:41PM 34.2753 -79.7642 203° Southwest 385 443 32,000  Level Jacksonville Center
01:42PM 34.1786 -79.8128 203° Southwest 385 443 32,000  Level Jacksonville Center
01:43PM 34.0775 -79.8614 202° Southwest 385 443 32,000  Level Jacksonville Center
01:44PM 33.9786 -79.9100 202° Southwest 390 449 32,000  Level Jacksonville Center
01:45PM 33.8794 -79.9608 203° Southwest 390 449 32,000  Level Jacksonville Center
01:46PM 33.7806 -80.0092 202° Southwest 390 449 32,000  Level Jacksonville Center
01:47PM 33.6794 -80.0597 203° Southwest 390 449 32,000  Level Jacksonville Center
01:48PM 33.5803 -80.1078 202° Southwest 390 449 32,000  Level Jacksonville Center
01:49PM 33.5003 -80.1703 213° Southwest 390 449 32,000  Level Jacksonville Center
01:50PM 33.4142 -80.2400 214° Southwest 384 442 32,000  Level Jacksonville Center
01:51PM 33.3300 -80.3122 216° Southwest 384 442 32,000  Level Jacksonville Center
01:52PM 33.2439 -80.3842 215° Southwest 384 442 32,000  Level Jacksonville Center
01:53PM 33.1556 -80.4561 214° Southwest 384 442 32,000  Level Jacksonville Center
01:54PM 33.0672 -80.5278 214° Southwest 389 448 32,000  Level Jacksonville Center
01:55PM 32.9828 -80.5969 214° Southwest 389 448 32,000  Level Jacksonville Center
01:56PM 32.8944 -80.6683 214° Southwest 389 448 32,000  Level Jacksonville Center
01:57PM 32.8058 -80.7400 214° Southwest 395 455 32,000  Level Jacksonville Center
01:58PM 32.7172 -80.8111 214° Southwest 395 455 32,000  Level Jacksonville Center
01:59PM 32.6286 -80.8847 215° Southwest 395 455 32,000  Level Jacksonville Center
02:00PM 32.5400 -80.9556 214° Southwest 395 455 32,000  Level Jacksonville Center
02:01PM 32.4514 -81.0264 214° Southwest 395 455 32,000  Level Jacksonville Center
02:02PM 32.3625 -81.0972 214° Southwest 395 455 32,000  Level Jacksonville Center
02:03PM 32.2739 -81.1678 214° Southwest 395 455 32,000  Level Jacksonville Center
02:04PM 32.1828 -81.2406 214° Southwest 395 455 32,000  Level Jacksonville Center
02:05PM 32.0919 -81.3133 214° Southwest 395 455 32,000  Level Jacksonville Center
02:06PM 31.9947 -81.3908 214° Southwest 395 455 32,000  Level Jacksonville Center
02:07PM 31.9036 -81.4608 213° Southwest 401 461 32,000  Level Jacksonville Center
02:08PM 31.8106 -81.5333 214° Southwest 401 461 32,000  Level Jacksonville Center
02:09PM 31.7278 -81.6006 215° Southwest 406 467 32,000  Level Jacksonville Center
02:10PM 31.6367 -81.6725 214° Southwest 396 456 32,000  Level Jacksonville Center
02:11PM 31.5392 -81.7494 214° Southwest 396 456 32,000  Level Jacksonville Center
02:12PM 31.4353 -81.7992 202° Southwest 396 456 32,000  Level Jacksonville Center
02:13PM 31.3228 -81.8347 195° South 404 465 32,000  Level Jacksonville Center
02:14PM 31.2144 -81.8675 195° South 409 471 32,000  Level Jacksonville Center
02:15PM 31.1061 -81.9003 195° South 414 476 32,000  Level Jacksonville Center
02:16PM 30.9958 -81.9353 195° South 414 476 32,000  Level Jacksonville Center
02:17PM 30.8875 -81.9656 193° South 414 476 32,000  Level Jacksonville Center
02:18PM 30.7769 -82.0028 196° South 414 476 32,000  Level Jacksonville Center
02:19PM 30.6667 -82.0328 193° South 409 471 32,000  Level Jacksonville Center
02:20PM 30.5583 -82.0675 195° South 409 471 32,000  Level Jacksonville Center
02:22PM 30.3497 -82.1247 193° South 415 478 32,000  Level Jacksonville Center
02:23PM 30.2414 -82.1567 194° South 415 478 32,000  Level Jacksonville Center
02:24PM 30.1353 -82.1914 196° South 410 472 32,000  Level Jacksonville Center
02:25PM 30.0267 -82.2233 194° South 410 472 32,000 -300 Level Jacksonville Center
02:26PM 29.9183 -82.2600 196° South 410 472 31,500 -1,200 Descending Jacksonville Center
02:27PM 29.8100 -82.2917 194° South 410 472 29,600 -1,920 Descending Jacksonville Center
02:28PM 29.6933 -82.3236 193° South 417 480 27,700 -2,040 Descending Jacksonville Center
02:29PM 29.5722 -82.3528 192° South 433 498 25,600 -2,160 Descending Jacksonville Center
02:30PM 29.4447 -82.3392 175° South 447 514 23,400 -2,220 Descending Jacksonville Center
02:31PM 29.3236 -82.3233 173° South 442 509 21,200 -2,220 Descending Jacksonville Center
02:32PM 29.2025 -82.3122 175° South 442 509 19,000 -1,980 Descending Jacksonville Center
02:33PM 29.0856 -82.2986 174° South 436 502 17,300 -1,860 Descending Jacksonville Center
02:34PM 28.9769 -82.2850 174° South 416 479 15,300 -1,980 Descending Jacksonville Center
02:35PM 28.8683 -82.2714 174° South 405 466 13,400 -780 Descending Jacksonville Center
02:37PM 28.6333 -82.2500 175° South 377 434 13,000 -720 Descending Tampa TRACON
02:38PM 28.5167 -82.2667 187° South 378 435 11,200 -1,440 Descending Tampa TRACON
02:39PM 28.4833 -82.3833 252° West 374 430 10,100 -660 Descending Tampa TRACON
02:40PM 28.4833 -82.4833 270° West 365 420 10,000 -360 Descending Tampa TRACON
02:41PM 28.4833 -82.5833 270° West 288 331 9,500 -840 Descending Tampa TRACON
02:42PM 28.4833 -82.6667 270° West 276 318 8,400 -1,200 Descending Tampa TRACON
02:43PM 28.5000 -82.7500 283° West 288 331 7,100 -660 Descending Tampa TRACON
02:44PM 28.4500 -82.8167 230° Southwest 263 303 7,100  Level Tampa TRACON
02:45PM 28.3833 -82.8500 204° Southwest 268 308 7,100  Level Tampa TRACON
02:46PM 28.3167 -82.8833 204° Southwest 267 307 7,100 -120 Level Tampa TRACON
02:47PM 28.2500 -82.9167 204° Southwest 267 307 6,900 -900 Descending Tampa TRACON
02:48PM 28.1833 -82.9500 204° Southwest 272 313 5,400 -1,440 Descending Tampa TRACON
02:49PM 28.1000 -82.9667 190° South 253 291 4,100 -660 Descending Tampa TRACON
02:50PM 28.0333 -82.9667 180° South 200 230 4,100  Level Tampa TRACON
02:51PM 27.9833 -82.9667 180° South 201 231 4,100  Level Tampa TRACON
02:52PM 27.9167 -82.9667 180° South 207 238 4,100  Level Tampa TRACON
02:53PM 27.8667 -82.9667 180° South 207 238 4,100  Level Tampa TRACON
02:54PM 27.8167 -82.9667 180° South 205 236 4,100 -120 Level Tampa TRACON
02:55PM 27.7667 -82.9500 164° South 211 243 3,900 -480 Descending Tampa TRACON
02:56PM 27.7167 -82.9000 138° Southeast 204 235 3,100 -660 Descending Tampa TRACON
02:57PM 27.7167 -82.8500 90° East 207 238 2,600 -600 Descending Tampa TRACON
02:58PM 27.7167 -82.7833 90° East 195 224 2,000 -300 Descending Tampa TRACON
02:59PM 27.7167 -82.7167 90° East 191 220 2,000 -60 Level Tampa TRACON
03:00PM 27.7333 -82.6833 61° Northeast 170 196 1,900  Descending Tampa TRACON
03:01PM 27.7667 -82.6667 24° Northeast 178 205 2,000 -180 Climbing Tampa TRACON
03:02PM 27.8167 -82.6667 360° North 177 204 1,600 -600 Descending Tampa TRACON
03:03PM 27.8667 -82.6833 344° North 145 167 900 -720 Descending Tampa TRACON